Time;durP1;ratioP1;P1;durP2;ratioP2;P2;SDS_P1;SDS_P2;PMS_P1;PMS_P2;Temp;Humidity;BMP_temperature;BMP_pressure;BME280_temperature;BME280_humidity;BME280_pressure;Samples;Min_cycle;Max_cycle;Signal;HPM_P1;HPM_P2
2022/03/27 00:02:18;;;;;;;;;;;;;;;-144.19;100.00;78429.97;5008154;28;19930;-84
2022/03/27 00:04:45;;;;;;;;;;;;;;;-144.19;100.00;78422.09;4993029;28;19957;-83
2022/03/27 00:07:12;;;;;;;;;;;;;;;-144.19;100.00;78433.91;4993354;28;20380;-84
2022/03/27 00:09:38;;;;;;;;;;;;;;;-144.19;100.00;78441.78;4993534;28;19932;-84
2022/03/27 00:12:04;;;;;;;;;;;;;;;-144.19;100.00;78459.50;4992423;28;19925;-84
2022/03/27 00:14:31;;;;;;;;;;;;;;;-144.19;100.00;78453.59;4993514;28;19934;-84
2022/03/27 00:16:57;;;;;;;;;;;;;;;-144.19;100.00;78467.38;4992282;28;19941;-83
2022/03/27 00:19:24;;;;;;;;;;;;;;;-144.19;100.00;78465.41;4992547;28;19932;-84
2022/03/27 00:21:51;;;;;;;;;;;;;;;-144.19;100.00;78475.25;5004879;28;19926;-84
2022/03/27 00:24:17;;;;;;;;;;;;;;;-144.19;100.00;78500.84;4992533;28;20112;-84
2022/03/27 00:26:43;;;;;;;;;;;;;;;-144.19;100.00;78512.66;5008238;28;19944;-84
2022/03/27 00:29:10;;;;;;;;;;;;;;;-144.19;100.00;78506.75;5007682;28;19926;-84
2022/03/27 00:31:38;;;;;;;;;;;;;;;-144.19;100.00;78504.78;5007658;28;19929;-84
2022/03/27 00:34:05;;;;;;;;;;;;;;;-144.19;100.00;78494.94;4986048;28;19969;-85
2022/03/27 00:36:31;;;;;;;;;;;;;;;-144.19;100.00;78500.84;4973635;28;20407;-84
2022/03/27 00:38:58;;;;;;;;;;;;;;;-144.19;100.00;78516.59;4973448;28;19933;-84
2022/03/27 00:41:25;;;;;;;;;;;;;;;-144.19;100.00;78532.38;4973080;28;19932;-84
2022/03/27 00:43:52;;;;;;;;;;;;;;;-144.19;100.00;78530.41;4987744;28;19930;-84
2022/03/27 00:46:18;;;;;;;;;;;;;;;-144.19;100.00;78522.50;4973169;28;20312;-84
2022/03/27 00:48:44;;;;;;;;;;;;;;;-144.19;100.00;78520.56;4987952;28;19992;-85
2022/03/27 00:51:11;;;;;;;;;;;;;;;-144.19;100.00;78516.59;4991412;28;19933;-84
2022/03/27 00:53:37;;;;;;;;;;;;;;;-144.19;100.00;78518.56;4992214;28;19941;-84
2022/03/27 00:56:04;;;;;;;;;;;;;;;-144.19;100.00;78532.38;4992463;28;19926;-84
2022/03/27 00:58:30;;;;;;;;;;;;;;;-144.19;100.00;78548.13;4990938;28;20011;-84
2022/03/27 01:01:04;;;;;;;;;;;;;;;-144.19;100.00;78565.84;5006903;28;19926;-84
2022/03/27 01:03:31;;;;;;;;;;;;;;;-144.19;100.00;78575.69;4990648;28;19933;-84
2022/03/27 01:05:58;;;;;;;;;;;;;;;-144.19;100.00;78575.69;5007538;28;19984;-84
2022/03/27 01:11:18;;;;;;;;;;;;;;;-144.19;100.00;78577.66;4991924;28;19925;-83
2022/03/27 01:13:53;;;;;;;;;;;;;;;-144.19;100.00;78585.53;4991370;28;19930;-83
2022/03/27 01:16:36;;;;;;;;;;;;;;;-144.19;100.00;78607.19;4992484;28;19933;-83
2022/03/27 01:19:03;;;;;;;;;;;;;;;-144.19;100.00;78634.78;4992332;28;19930;-84
2022/03/27 01:21:30;;;;;;;;;;;;;;;-144.19;100.00;78640.69;4987168;28;20388;-83
2022/03/27 01:23:56;;;;;;;;;;;;;;;-144.19;100.00;78607.19;4989920;28;19925;-84
2022/03/27 01:26:23;;;;;;;;;;;;;;;-144.19;100.00;78607.19;4991093;28;20311;-83
2022/03/27 01:28:50;;;;;;;;;;;;;;;-144.19;100.00;78632.81;4992234;28;19933;-83
2022/03/27 01:31:17;;;;;;;;;;;;;;;-144.19;100.00;78650.53;4990733;28;19926;-83
2022/03/27 01:33:44;;;;;;;;;;;;;;;-144.19;100.00;78630.84;4988036;28;20010;-83
2022/03/27 01:36:10;;;;;;;;;;;;;;;-144.19;100.00;78624.94;4990357;28;19926;-84
2022/03/27 01:38:36;;;;;;;;;;;;;;;-144.19;100.00;78622.97;4991980;28;19926;-83
2022/03/27 01:41:03;;;;;;;;;;;;;;;-144.19;100.00;78607.19;4992163;28;19932;-84
2022/03/27 01:43:29;;;;;;;;;;;;;;;-144.19;100.00;78589.47;4992243;28;19926;-84
2022/03/27 01:45:55;;;;;;;;;;;;;;;-144.19;100.00;78595.38;4994548;28;19926;-84
2022/03/27 01:48:22;;;;;;;;;;;;;;;-144.19;100.00;78575.69;5009166;28;19926;-84
2022/03/27 01:50:58;;;;;;;;;;;;;;;-144.19;100.00;78565.84;4993265;28;19929;-84
2022/03/27 01:53:24;;;;;;;;;;;;;;;-144.19;100.00;78577.66;4992421;28;19932;-84
2022/03/27 01:55:50;;;;;;;;;;;;;;;-144.19;100.00;78579.63;5009504;28;19932;-84
2022/03/27 01:58:17;;;;;;;;;;;;;;;-144.19;100.00;78579.63;5008440;28;19990;-83
2022/03/27 02:00:43;;;;;;;;;;;;;;;-144.19;100.00;78579.63;4992761;28;19936;-84
2022/03/27 02:03:10;;;;;;;;;;;;;;;-144.19;100.00;78587.50;4992721;28;19988;-84
2022/03/27 02:05:36;;;;;;;;;;;;;;;-144.19;100.00;78595.38;4993172;28;19933;-83
2022/03/27 02:08:03;;;;;;;;;;;;;;;-144.19;100.00;78607.19;5014180;28;19932;-84
2022/03/27 02:10:50;;;;;;;;;;;;;;;-144.19;100.00;78615.09;5018057;28;19980;-83
2022/03/27 02:13:19;;;;;;;;;;;;;;;-144.19;100.00;78617.06;5007140;28;19921;-83
2022/03/27 02:15:46;;;;;;;;;;;;;;;-144.19;100.00;78621.00;4995378;28;19926;-84
2022/03/27 02:18:14;;;;;;;;;;;;;;;-144.19;100.00;78617.06;5007962;28;19930;-83
2022/03/27 02:20:40;;;;;;;;;;;;;;;-144.19;100.00;78619.03;4993192;28;19925;-84
2022/03/27 02:23:07;;;;;;;;;;;;;;;-144.19;100.00;78632.81;4993698;28;19926;-84
2022/03/27 02:25:33;;;;;;;;;;;;;;;-144.19;100.00;78634.78;4992111;28;19926;-84
2022/03/27 02:28:00;;;;;;;;;;;;;;;-144.19;100.00;78636.75;4993602;28;20316;-84
2022/03/27 02:30:26;;;;;;;;;;;;;;;-144.19;100.00;78634.78;4991737;28;20340;-84
2022/03/27 02:32:52;;;;;;;;;;;;;;;-144.19;100.00;78650.53;4996840;28;19941;-84
2022/03/27 02:35:19;;;;;;;;;;;;;;;-144.19;100.00;78656.44;4980544;28;19930;-84
2022/03/27 02:37:45;;;;;;;;;;;;;;;-144.19;100.00;78687.94;4974195;28;20316;-83
2022/03/27 02:40:11;;;;;;;;;;;;;;;-144.19;100.00;78689.91;4974008;28;19926;-84
2022/03/27 02:42:38;;;;;;;;;;;;;;;-144.19;100.00;78697.78;4991058;28;20205;-84
2022/03/27 02:45:05;;;;;;;;;;;;;;;-144.19;100.00;78701.72;4993474;28;20025;-83
2022/03/27 02:47:32;;;;;;;;;;;;;;;-144.19;100.00;78709.63;4992847;28;19945;-84
2022/03/27 02:49:58;;;;;;;;;;;;;;;-144.19;100.00;78705.66;4992471;28;19930;-83
2022/03/27 02:52:24;;;;;;;;;;;;;;;-144.19;100.00;78697.78;4993704;28;19932;-84
2022/03/27 02:54:51;;;;;;;;;;;;;;;-144.19;100.00;78693.84;4994209;28;20392;-84
2022/03/27 02:57:17;;;;;;;;;;;;;;;-144.19;100.00;78682.03;4995311;28;19926;-83
2022/03/27 02:59:44;;;;;;;;;;;;;;;-144.19;100.00;78684.00;4995433;28;19925;-83
2022/03/27 03:02:10;;;;;;;;;;;;;;;-144.19;100.00;78685.97;4994918;28;19926;-83
2022/03/27 03:04:37;;;;;;;;;;;;;;;-144.19;100.00;78693.84;5011044;28;19929;-84
2022/03/27 03:07:03;;;;;;;;;;;;;;;-144.19;100.00;78693.84;4996195;28;19926;-83
2022/03/27 03:09:29;;;;;;;;;;;;;;;-144.19;100.00;78699.75;4995977;28;19926;-82
2022/03/27 03:11:56;;;;;;;;;;;;;;;-144.19;100.00;78695.81;4994102;28;20013;-83
2022/03/27 03:14:22;;;;;;;;;;;;;;;-144.19;100.00;78685.97;5009628;28;19929;-82
2022/03/27 03:16:52;;;;;;;;;;;;;;;-144.19;100.00;78689.91;5010008;28;19995;-84
2022/03/27 03:19:19;;;;;;;;;;;;;;;-144.19;100.00;78709.63;4995404;28;19929;-83
2022/03/27 03:21:45;;;;;;;;;;;;;;;-144.19;100.00;78701.72;4993936;28;19926;-83
2022/03/27 03:24:11;;;;;;;;;;;;;;;-144.19;100.00;78685.97;4994543;28;19932;-83
2022/03/27 03:26:38;;;;;;;;;;;;;;;-144.19;100.00;78695.81;4995794;28;19926;-83
2022/03/27 03:29:04;;;;;;;;;;;;;;;-144.19;100.00;78685.97;4994433;28;19932;-84
2022/03/27 03:31:30;;;;;;;;;;;;;;;-144.19;100.00;78693.84;4986306;28;19930;-83
2022/03/27 03:33:57;;;;;;;;;;;;;;;-144.19;100.00;78672.19;4980468;28;19976;-84
2022/03/27 03:36:23;;;;;;;;;;;;;;;-144.19;100.00;78678.09;4995911;28;19947;-83
2022/03/27 03:38:50;;;;;;;;;;;;;;;-144.19;100.00;78697.78;4996225;28;19926;-84
2022/03/27 03:41:17;;;;;;;;;;;;;;;-144.19;100.00;78701.72;4994950;28;20277;-83
2022/03/27 03:43:43;;;;;;;;;;;;;;;-144.19;100.00;78709.63;4993957;28;20373;-84
2022/03/27 03:46:10;;;;;;;;;;;;;;;-144.19;100.00;78717.50;4994005;28;19930;-84
2022/03/27 03:48:36;;;;;;;;;;;;;;;-144.19;100.00;78715.53;4995773;28;19972;-84
2022/03/27 03:51:03;;;;;;;;;;;;;;;-144.19;100.00;78723.41;4994920;28;19925;-84
2022/03/27 03:53:29;;;;;;;;;;;;;;;-144.19;100.00;78717.50;4994532;28;19936;-85
2022/03/27 03:55:55;;;;;;;;;;;;;;;-144.19;100.00;78731.28;4995926;28;19926;-84
2022/03/27 03:58:21;;;;;;;;;;;;;;;-144.19;100.00;78725.38;4995192;28;19930;-85
2022/03/27 04:00:48;;;;;;;;;;;;;;;-144.19;100.00;78717.50;4995479;28;19976;-84
2022/03/27 04:03:14;;;;;;;;;;;;;;;-144.19;100.00;78731.28;5009127;28;19926;-84
2022/03/27 04:05:41;;;;;;;;;;;;;;;-144.19;100.00;78739.16;4995824;28;20380;-84
2022/03/27 04:08:07;;;;;;;;;;;;;;;-144.19;100.00;78745.06;4995910;28;19932;-84
2022/03/27 04:10:33;;;;;;;;;;;;;;;-144.19;100.00;78745.06;4993821;28;20002;-84
2022/03/27 04:12:59;;;;;;;;;;;;;;;-144.19;100.00;78733.25;4993388;28;19926;-84
2022/03/27 04:15:26;;;;;;;;;;;;;;;-144.19;100.00;78741.13;4994854;28;19985;-85
2022/03/27 04:18:12;;;;;;;;;;;;;;;-144.19;100.00;78737.19;4994913;28;19948;-85
2022/03/27 04:20:40;;;;;;;;;;;;;;;-144.19;100.00;78725.38;5009501;28;19930;-84
2022/03/27 04:23:06;;;;;;;;;;;;;;;-144.19;100.00;78723.41;4993981;28;19933;-84
2022/03/27 04:25:33;;;;;;;;;;;;;;;-144.19;100.00;78737.19;4994820;28;20292;-83
2022/03/27 04:28:07;;;;;;;;;;;;;;;-144.19;100.00;78735.22;4995210;28;19930;-84
2022/03/27 04:30:34;;;;;;;;;;;;;;;-144.19;100.00;78729.31;4994316;28;20307;-84
2022/03/27 04:33:01;;;;;;;;;;;;;;;-144.19;100.00;78719.47;4993318;28;19965;-83
2022/03/27 04:35:27;;;;;;;;;;;;;;;-144.19;100.00;78717.50;4977641;28;19926;-84
2022/03/27 04:37:53;;;;;;;;;;;;;;;-144.19;100.00;78725.38;4973908;28;19937;-84
2022/03/27 04:40:20;;;;;;;;;;;;;;;-144.19;100.00;78729.31;4975386;28;19926;-84
2022/03/27 04:42:46;;;;;;;;;;;;;;;-144.19;100.00;78729.31;4973385;28;20313;-84
2022/03/27 04:45:13;;;;;;;;;;;;;;;-144.19;100.00;78731.28;4990055;28;19927;-84
2022/03/27 04:47:39;;;;;;;;;;;;;;;-144.19;100.00;78729.31;4985242;28;19930;-84
2022/03/27 04:50:06;;;;;;;;;;;;;;;-144.19;100.00;78733.25;4993980;28;19937;-84
2022/03/27 04:52:32;;;;;;;;;;;;;;;-144.19;100.00;78739.16;4992660;28;20411;-84
2022/03/27 04:54:59;;;;;;;;;;;;;;;-144.19;100.00;78752.94;4994329;28;19934;-84
2022/03/27 04:57:31;;;;;;;;;;;;;;;-144.19;100.00;78733.25;4994340;28;19925;-84
2022/03/27 04:59:58;;;;;;;;;;;;;;;-144.19;100.00;78739.16;4994234;28;19933;-84
2022/03/27 05:02:24;;;;;;;;;;;;;;;-144.19;100.00;78745.06;4993036;28;19932;-84
2022/03/27 05:04:50;;;;;;;;;;;;;;;-144.19;100.00;78747.03;4994034;28;19926;-84
2022/03/27 05:07:16;;;;;;;;;;;;;;;-144.19;100.00;78747.03;4992810;28;19926;-84
2022/03/27 05:09:43;;;;;;;;;;;;;;;-144.19;100.00;78749.00;4992958;28;19926;-84
2022/03/27 05:12:09;;;;;;;;;;;;;;;-144.19;100.00;78743.09;4992101;28;19929;-84
2022/03/27 05:14:36;;;;;;;;;;;;;;;-144.19;100.00;78749.00;4993369;28;19935;-84
2022/03/27 05:17:04;;;;;;;;;;;;;;;-144.19;100.00;78733.25;5008677;28;19965;-84
2022/03/27 05:19:30;;;;;;;;;;;;;;;-144.19;100.00;78743.09;4989967;28;20404;-84
2022/03/27 05:21:57;;;;;;;;;;;;;;;-144.19;100.00;78741.13;4984041;28;19933;-84
2022/03/27 05:24:25;;;;;;;;;;;;;;;-144.19;100.00;78758.84;4997798;28;19926;-85
2022/03/27 05:26:51;;;;;;;;;;;;;;;-144.19;100.00;78760.81;4984118;28;19926;-84
2022/03/27 05:29:17;;;;;;;;;;;;;;;-144.19;100.00;78776.56;4983048;28;19932;-84
2022/03/27 05:31:45;;;;;;;;;;;;;;;-144.19;100.00;78784.44;4998816;28;20414;-85
2022/03/27 05:34:11;;;;;;;;;;;;;;;-144.19;100.00;78788.38;4997560;28;19934;-85
2022/03/27 05:36:38;;;;;;;;;;;;;;;-144.19;100.00;78784.44;4980379;28;19926;-84
2022/03/27 05:39:04;;;;;;;;;;;;;;;-144.19;100.00;78780.50;4981634;28;19933;-84
2022/03/27 05:41:30;;;;;;;;;;;;;;;-144.19;100.00;78786.41;4972877;28;19926;-84
2022/03/27 05:43:57;;;;;;;;;;;;;;;-144.19;100.00;78780.50;4972940;28;19926;-84
2022/03/27 05:46:24;;;;;;;;;;;;;;;-144.19;100.00;78794.31;4972685;28;19926;-84
2022/03/27 05:48:50;;;;;;;;;;;;;;;-144.19;100.00;78800.22;5002099;28;19968;-84
2022/03/27 05:51:16;;;;;;;;;;;;;;;-144.19;100.00;78792.34;5007419;28;19938;-83
2022/03/27 05:53:44;;;;;;;;;;;;;;;-144.19;100.00;78792.34;4991835;28;19932;-89
2022/03/27 05:56:10;;;;;;;;;;;;;;;-144.19;100.00;78786.41;5007543;28;19926;-84
2022/03/27 05:58:37;;;;;;;;;;;;;;;-144.19;100.00;78784.44;4992709;28;20281;-83
2022/03/27 06:01:04;;;;;;;;;;;;;;;-144.19;100.00;78796.28;4991415;28;20332;-85
2022/03/27 06:03:31;;;;;;;;;;;;;;;-144.19;100.00;78792.34;4990093;28;19933;-84
2022/03/27 06:05:57;;;;;;;;;;;;;;;-144.19;100.00;78808.09;4991499;28;20400;-83
2022/03/27 06:08:24;;;;;;;;;;;;;;;-144.19;100.00;78806.13;4992162;28;20396;-84
2022/03/27 06:10:50;;;;;;;;;;;;;;;-144.19;100.00;78804.16;5006402;28;20384;-83
2022/03/27 06:13:19;;;;;;;;;;;;;;;-144.19;100.00;78798.25;4990208;28;19933;-84
2022/03/27 06:15:46;;;;;;;;;;;;;;;-144.19;100.00;78794.31;5006785;28;20325;-84
2022/03/27 06:18:12;;;;;;;;;;;;;;;-144.19;100.00;78792.34;5007991;28;19926;-84
2022/03/27 06:20:39;;;;;;;;;;;;;;;-144.19;100.00;78794.31;4992044;28;19930;-84
2022/03/27 06:23:06;;;;;;;;;;;;;;;-144.19;100.00;78788.38;4991030;28;20016;-84
2022/03/27 06:25:33;;;;;;;;;;;;;;;-144.19;100.00;78788.38;4990892;28;19926;-84
2022/03/27 06:27:59;;;;;;;;;;;;;;;-144.19;100.00;78800.22;4994250;28;20308;-84
2022/03/27 06:30:27;;;;;;;;;;;;;;;-144.19;100.00;78808.09;4994379;28;19930;-84
2022/03/27 06:32:57;;;;;;;;;;;;;;;-144.19;100.00;78823.84;4994109;28;19926;-84
2022/03/27 06:35:23;;;;;;;;;;;;;;;-144.19;100.00;78849.44;4997942;28;19925;-84
2022/03/27 06:37:51;;;;;;;;;;;;;;;-144.19;100.00;78835.66;5001272;28;19926;-83
2022/03/27 06:40:17;;;;;;;;;;;;;;;-144.19;100.00;78823.84;4983970;28;19926;-84
2022/03/27 06:42:44;;;;;;;;;;;;;;;-144.19;100.00;78827.78;4985015;28;19926;-84
2022/03/27 06:45:11;;;;;;;;;;;;;;;-144.19;100.00;78812.03;5000937;28;19926;-84
2022/03/27 06:47:38;;;;;;;;;;;;;;;-144.19;100.00;78808.09;4999239;28;20393;-84
2022/03/27 06:50:05;;;;;;;;;;;;;;;-144.19;100.00;78808.09;4984933;28;19926;-84
2022/03/27 06:52:32;;;;;;;;;;;;;;;-144.19;100.00;78808.09;4985547;28;19932;-83
2022/03/27 06:54:58;;;;;;;;;;;;;;;-144.19;100.00;78806.13;4984389;28;20003;-83
2022/03/27 06:57:24;;;;;;;;;;;;;;;-144.19;100.00;78800.22;5000329;28;19926;-83
2022/03/27 07:05:22;;;;;;;;;;;;;;;-144.19;100.00;78812.03;5020447;23;19963;-83
2022/03/27 07:07:55;;;;;;;;;;;;;;;-144.19;100.00;78800.22;5000047;28;21258;-85
2022/03/27 07:10:21;;;;;;;;;;;;;;;-144.19;100.00;78790.38;4993093;28;19936;-84
2022/03/27 07:12:48;;;;;;;;;;;;;;;-144.19;100.00;78823.84;4991097;28;19926;-84
2022/03/27 07:15:14;;;;;;;;;;;;;;;-144.19;100.00;78817.94;4992850;28;19989;-84
2022/03/27 07:17:53;;;;;;;;;;;;;;;-144.19;100.00;78796.28;4980473;28;19930;-86
2022/03/27 07:20:24;;;;;;;;;;;;;;;-144.19;100.00;78821.88;4995809;28;20331;-83
2022/03/27 07:22:51;;;;;;;;;;;;;;;-144.19;100.00;78812.03;5013196;28;19933;-84
2022/03/27 07:25:18;;;;;;;;;;;;;;;-144.19;100.00;78792.34;5013454;28;19948;-84
2022/03/27 07:27:48;;;;;;;;;;;;;;;-144.19;100.00;78784.44;5014405;28;19925;-86
2022/03/27 07:30:14;;;;;;;;;;;;;;;-144.19;100.00;78788.38;5012947;28;19932;-85
2022/03/27 07:32:40;;;;;;;;;;;;;;;-144.19;100.00;78792.34;4995289;28;19926;-83
2022/03/27 07:35:08;;;;;;;;;;;;;;;-144.19;100.00;78784.44;4999466;28;19926;-82
2022/03/27 07:37:35;;;;;;;;;;;;;;;-144.19;100.00;78806.13;4989195;28;20174;-84
2022/03/27 07:40:03;;;;;;;;;;;;;;;-144.19;100.00;78808.09;4975995;28;19937;-83
2022/03/27 07:42:32;;;;;;;;;;;;;;;-144.19;100.00;78774.59;4975361;28;19926;-85
2022/03/27 07:44:58;;;;;;;;;;;;;;;-144.19;100.00;78788.38;4977300;28;20400;-85
2022/03/27 07:47:31;;;;;;;;;;;;;;;-144.19;100.00;78800.22;5004678;28;20299;-84
2022/03/27 07:49:57;;;;;;;;;;;;;;;-144.19;100.00;78780.50;5013238;28;19925;-84
2022/03/27 07:52:23;;;;;;;;;;;;;;;-144.19;100.00;78780.50;5012437;28;19925;-83
2022/03/27 07:54:50;;;;;;;;;;;;;;;-144.19;100.00;78768.69;5013673;28;19925;-85
2022/03/27 07:57:16;;;;;;;;;;;;;;;-144.19;100.00;78766.72;4995243;28;19926;-85
2022/03/27 07:59:42;;;;;;;;;;;;;;;-144.19;100.00;78776.56;5023048;28;19930;-83
2022/03/27 08:02:08;;;;;;;;;;;;;;;-144.19;100.00;78756.88;5024641;28;19930;-85
2022/03/27 08:04:35;;;;;;;;;;;;;;;-144.19;100.00;78733.25;4996014;28;20447;-83
2022/03/27 08:07:02;;;;;;;;;;;;;;;-144.19;100.00;78741.13;5012355;28;19926;-83
2022/03/27 08:09:28;;;;;;;;;;;;;;;-144.19;100.00;78717.50;5014305;28;20008;-82
2022/03/27 08:11:55;;;;;;;;;;;;;;;-144.19;100.00;78768.69;5013300;28;19925;-85
2022/03/27 08:14:24;;;;;;;;;;;;;;;-144.19;100.00;78774.59;5012200;28;19932;-83
2022/03/27 08:16:50;;;;;;;;;;;;;;;-144.19;100.00;78768.69;5015487;28;20377;-86
2022/03/27 08:19:17;;;;;;;;;;;;;;;-144.19;100.00;78764.75;4996166;28;19925;-83
2022/03/27 08:21:43;;;;;;;;;;;;;;;-144.19;100.00;78739.16;4996271;28;20302;-83
2022/03/27 08:24:09;;;;;;;;;;;;;;;-144.19;100.00;78737.19;5010877;28;20000;-83
2022/03/27 08:29:21;;;;;;;;;;;;;;;-144.19;100.00;78743.09;5013571;28;20304;-84
2022/03/27 08:31:48;;;;;;;;;;;;;;;-144.19;100.00;78733.25;4993396;28;19940;-83
2022/03/27 08:34:14;;;;;;;;;;;;;;;-144.19;100.00;78715.53;4987691;28;20486;-83
2022/03/27 08:36:40;;;;;;;;;;;;;;;-144.19;100.00;78705.66;4976428;28;19925;-83
2022/03/27 08:39:08;;;;;;;;;;;;;;;-144.19;100.00;78703.72;4993864;28;19925;-82
2022/03/27 08:41:34;;;;;;;;;;;;;;;-144.19;100.00;78693.84;4993935;28;19926;-84
2022/03/27 08:44:01;;;;;;;;;;;;;;;-144.19;100.00;78713.56;4976732;28;19933;-83
2022/03/27 08:46:30;;;;;;;;;;;;;;;-144.19;100.00;78687.94;4993966;28;20312;-83
2022/03/27 08:49:00;;;;;;;;;;;;;;;-144.19;100.00;78693.84;5005933;28;19976;-83
2022/03/27 08:51:32;;;;;;;;;;;;;;;-144.19;100.00;78687.94;5011951;28;19926;-83
2022/03/27 08:54:02;;;;;;;;;;;;;;;-144.19;100.00;78678.09;4994337;28;19925;-83
2022/03/27 08:56:29;;;;;;;;;;;;;;;-144.19;100.00;78682.03;5012057;28;19929;-84
2022/03/27 08:58:57;;;;;;;;;;;;;;;-144.19;100.00;78666.28;5011230;28;19936;-83
2022/03/27 09:01:24;;;;;;;;;;;;;;;-144.19;100.00;78650.53;5009820;28;19936;-84
2022/03/27 09:03:50;;;;;;;;;;;;;;;-144.19;100.00;78650.53;5010354;28;19956;-87
2022/03/27 09:06:16;;;;;;;;;;;;;;;-144.19;100.00;78619.03;5010789;28;19930;-84
2022/03/27 09:08:43;;;;;;;;;;;;;;;-144.19;100.00;78599.31;4990029;28;19945;-82
2022/03/27 09:11:15;;;;;;;;;;;;;;;-144.19;100.00;78591.44;4986436;28;20334;-84
2022/03/27 09:13:45;;;;;;;;;;;;;;;-144.19;100.00;78591.44;4975434;28;19932;-83
2022/03/27 09:16:11;;;;;;;;;;;;;;;-144.19;100.00;78615.09;4996639;28;19933;-82
2022/03/27 09:18:46;;;;;;;;;;;;;;;-144.19;100.00;78634.78;4994931;28;19937;-84
2022/03/27 09:21:16;;;;;;;;;;;;;;;-144.19;100.00;78644.63;5007252;28;19933;-84
2022/03/27 09:23:42;;;;;;;;;;;;;;;-144.19;100.00;78579.63;5010822;28;19925;-83
2022/03/27 09:26:16;;;;;;;;;;;;;;;-144.19;100.00;78563.88;5011883;28;19930;-84
2022/03/27 09:28:47;;;;;;;;;;;;;;;-144.19;100.00;78512.66;4993893;28;19929;-81
2022/03/27 09:31:18;;;;;;;;;;;;;;;-144.19;100.00;78575.69;4993783;28;19925;-85
2022/03/27 09:33:49;;;;;;;;;;;;;;;-144.19;100.00;78522.50;5010778;28;20004;-83
2022/03/27 09:36:15;;;;;;;;;;;;;;;-144.19;100.00;78492.97;5011824;28;20010;-83
2022/03/27 09:38:55;;;;;;;;;;;;;;;-144.19;100.00;78453.59;5011907;28;19932;-85
2022/03/27 09:41:28;;;;;;;;;;;;;;;-144.19;100.00;78461.47;4989546;28;19930;-81
2022/03/27 09:44:00;;;;;;;;;;;;;;;-144.19;100.00;78449.66;4976231;28;19932;-81
2022/03/27 09:46:26;;;;;;;;;;;;;;;-144.19;100.00;78410.25;5011473;28;19926;-83
2022/03/27 09:48:56;;;;;;;;;;;;;;;-144.19;100.00;78339.38;5011332;28;19930;-85
2022/03/27 09:51:23;;;;;;;;;;;;;;;-144.19;100.00;78359.06;5009891;28;20418;-83
2022/03/27 09:53:57;;;;;;;;;;;;;;;-144.19;100.00;78355.13;4992783;28;19929;-83
2022/03/27 09:56:28;;;;;;;;;;;;;;;-144.19;100.00;78288.16;5011350;28;19931;-82
2022/03/27 09:58:55;;;;;;;;;;;;;;;-144.19;100.00;78311.81;4994406;28;19932;-82
2022/03/27 10:01:22;;;;;;;;;;;;;;;-144.19;100.00;78292.09;4990149;28;19926;-84
2022/03/27 10:04:13;;;;;;;;;;;;;;;-144.19;100.00;78260.59;4995555;28;19929;-83
2022/03/27 10:06:40;;;;;;;;;;;;;;;-144.19;100.00;78199.56;5011419;28;19929;-83
2022/03/27 10:09:07;;;;;;;;;;;;;;;-144.19;100.00;78134.56;5011021;28;20411;-84
2022/03/27 10:11:34;;;;;;;;;;;;;;;-144.19;100.00;78140.47;4994250;28;19933;-81
2022/03/27 10:14:03;;;;;;;;;;;;;;;-144.19;100.00;78168.03;4992460;28;19925;-84
2022/03/27 10:16:34;;;;;;;;;;;;;;;-144.19;100.00;78095.19;5012023;28;19937;-81
2022/03/27 10:19:06;;;;;;;;;;;;;;;-144.19;100.00;78079.44;5012045;28;20390;-83
2022/03/27 10:21:33;;;;;;;;;;;;;;;-144.19;100.00;78051.88;5010692;28;19926;-82
2022/03/27 10:24:04;;;;;;;;;;;;;;;-144.19;100.00;77980.97;5011850;28;20384;-84
2022/03/27 10:26:36;;;;;;;;;;;;;;;-144.19;100.00;77929.78;5010529;28;19936;-82
2022/03/27 10:29:04;;;;;;;;;;;;;;;-144.19;100.00;77965.22;5009711;28;20507;-83
2022/03/27 10:31:30;;;;;;;;;;;;;;;-144.19;100.00;77862.84;4991954;28;19961;-84
2022/03/27 10:34:00;;;;;;;;;;;;;;;-144.19;100.00;77811.63;5000785;28;19926;-83
2022/03/27 10:36:53;;;;;;;;;;;;;;;-144.19;100.00;77774.22;4993182;28;19932;-83
2022/03/27 10:39:22;;;;;;;;;;;;;;;-144.19;100.00;77736.81;4972146;28;19962;-85
2022/03/27 10:41:57;;;;;;;;;;;;;;;-144.19;100.00;77675.78;5010433;28;19936;-82
2022/03/27 10:44:37;;;;;;;;;;;;;;;-144.19;98.25;77626.56;5007884;28;20396;-82
2022/03/27 10:47:19;;;;;;;;;;;;;;;-144.19;93.66;77669.88;4990292;28;19933;-83
2022/03/27 10:50:01;;;;;;;;;;;;;;;-144.19;90.19;77565.53;5009478;28;19965;-84
2022/03/27 10:52:30;;;;;;;;;;;;;;;-144.19;86.22;77606.88;5007447;28;19925;-83
2022/03/27 10:55:12;;;;;;;;;;;;;;;-144.19;83.26;77685.63;4992494;28;19940;-81
2022/03/27 10:57:47;;;;;;;;;;;;;;;-144.19;85.54;77459.19;4991689;28;19930;-83
2022/03/27 11:00:14;;;;;;;;;;;;;;;-144.19;81.81;77504.47;4990605;28;19938;-83
2022/03/27 11:02:45;;;;;;;;;;;;;;;-144.19;79.81;77435.56;4987203;28;19926;-83
2022/03/27 11:05:36;;;;;;;;;;;;;;;-144.19;73.41;77437.53;4992829;28;20125;-84
2022/03/27 11:08:14;;;;;;;;;;;;;;;-144.19;72.52;77317.44;5010612;28;20319;-83
2022/03/27 11:10:42;;;;;;;;;;;;;;;-144.19;71.34;77317.44;5010043;28;19925;-85
2022/03/27 11:13:28;;;;;;;;;;;;;;;-144.19;71.24;77313.50;5010586;28;20392;-83
2022/03/27 11:16:04;;;;;;;;;;;;;;;-144.19;65.91;77423.75;4989663;28;19930;-87
2022/03/27 11:18:35;;;;;;;;;;;;;;;-144.19;70.60;77350.91;4996844;28;19999;-84
2022/03/27 11:21:02;;;;;;;;;;;;;;;-144.19;71.58;77618.69;5016044;28;19937;-83
2022/03/27 11:23:29;;;;;;;;;;;;;;;-144.19;79.36;77467.06;5014658;28;20637;-84
2022/03/27 11:25:57;;;;;;;;;;;;;;;-144.19;72.66;77327.28;5009495;28;20386;-84
2022/03/27 11:28:25;;;;;;;;;;;;;;;-144.19;69.23;77238.69;4995271;28;19937;-86
2022/03/27 11:30:51;;;;;;;;;;;;;;;-144.19;67.09;77165.84;5012366;28;19980;-83
2022/03/27 11:33:20;;;;;;;;;;;;;;;-144.19;67.76;77185.53;5013259;28;19925;-84
2022/03/27 11:36:09;;;;;;;;;;;;;;;-144.19;64.40;77181.59;4993518;28;19933;-85
2022/03/27 11:38:36;;;;;;;;;;;;;;;-144.19;57.80;77272.16;4992571;28;20025;-81
2022/03/27 11:41:21;;;;;;;;;;;;;;;-144.19;65.68;77118.59;5009135;28;19934;-83
2022/03/27 11:43:49;;;;;;;;;;;;;;;-144.19;60.97;77146.16;5012876;28;19977;-86
2022/03/27 11:46:22;;;;;;;;;;;;;;;-144.19;62.23;77089.06;5004568;28;19926;-83
2022/03/27 11:48:55;;;;;;;;;;;;;;;-144.19;58.91;77059.53;5002246;28;20012;-83
2022/03/27 11:51:24;;;;;;;;;;;;;;;-144.19;59.84;76972.94;5011166;28;20307;-85
2022/03/27 11:53:52;;;;;;;;;;;;;;;-144.19;51.52;77053.63;5000355;28;19933;-83
2022/03/27 11:56:18;;;;;;;;;;;;;;;-144.19;61.01;76939.47;4976401;28;19940;-83
2022/03/27 11:59:04;;;;;;;;;;;;;;;-144.19;59.35;76886.31;4976606;28;19980;-82
2022/03/27 12:01:31;;;;;;;;;;;;;;;-144.19;53.30;76963.09;4979360;28;20052;-84
2022/03/27 12:03:58;;;;;;;;;;;;;;;-144.19;52.99;76866.63;5002966;28;19929;-83
2022/03/27 12:06:28;;;;;;;;;;;;;;;-144.19;54.89;76888.28;4983513;28;19926;-83
2022/03/27 12:08:56;;;;;;;;;;;;;;;-144.19;53.35;76844.97;4978845;28;19926;-83
2022/03/27 12:11:25;;;;;;;;;;;;;;;-144.19;59.77;76972.94;5004343;28;19932;-84
2022/03/27 12:13:52;;;;;;;;;;;;;;;-144.19;53.35;76898.13;5002521;28;19937;-84
2022/03/27 12:16:22;;;;;;;;;;;;;;;-144.19;52.56;76876.47;5002848;28;19929;-85
2022/03/27 12:18:50;;;;;;;;;;;;;;;-144.19;53.77;76909.94;5002484;28;19951;-84
2022/03/27 12:21:19;;;;;;;;;;;;;;;-144.19;55.56;77033.94;4984379;28;19926;-87
2022/03/27 12:23:55;;;;;;;;;;;;;;;-144.19;55.63;76968.97;4999737;28;19932;-83
2022/03/27 12:31:58;;;;;;;;;;;;;;;-144.19;60.53;76898.13;4999865;28;19936;-82
2022/03/27 12:34:24;;;;;;;;;;;;;;;-144.19;54.81;76961.13;5004044;28;19929;-86
2022/03/27 12:37:14;;;;;;;;;;;;;;;-144.19;53.08;77004.41;5000897;28;20412;-86
2022/03/27 12:40:02;;;;;;;;;;;;;;;-144.19;54.00;77020.16;5002524;28;19925;-85
2022/03/27 12:42:39;;;;;;;;;;;;;;;-144.19;55.70;77106.78;4987915;28;19929;-84